No.21 Houeimaru — JG5024 — position and weather

sailwx.info

Track history (hours):
 
Tides and Currents Weather Stations Pressure Air Temp Water Temp Dewpoint Dewpoint Depression Visibility Wind Speed Wind Dir Waves Ship Positions

No.21 Houeimaru

Last reported at 2018-Jun-23 08:41 UTC. Time now 2018-Jun-23 14:18 UTC.
Position N 35°29' E 139°42'.

Length 50 m.

Type: Tanker. MMSI: 431009275.

Date/timePositionNaut miles runAvg speedWind from/ knotsBaromVisibWave heightAir tempDewpointWater temp
2018-Jun-23 08:41N 35°29' E 139°42'0 0.0
2018-Jun-23 08:17N 35°29' E 139°42'0 0.2
2018-Jun-23 07:57N 35°29' E 139°42'6 1.0
2018-Jun-23 02:13N 35°29' E 139°48'2 7.8
2018-Jun-23 01:58N 35°28' E 139°46'4 8.3
2018-Jun-23 01:27N 35°25' E 139°43'3 1.1
2018-Jun-22 23:10N 35°24' E 139°40'1 3.3
2018-Jun-22 22:55N 35°24' E 139°40'0 0.5
2018-Jun-22 22:21N 35°23' E 139°40'0 0.0
2018-Jun-22 15:30N 35°23' E 139°40'0 0.0
2018-Jun-22 14:27N 35°23' E 139°40'0 0.0
2018-Jun-22 11:14N 35°23' E 139°40'2 6.7
2018-Jun-22 10:54N 35°24' E 139°42'4 0.4
2018-Jun-22 02:19N 35°27' E 139°45'3 8.3
2018-Jun-22 01:59N 35°25' E 139°43'2 0.8
2018-Jun-21 23:08N 35°23' E 139°41'3 9.7
2018-Jun-21 22:47N 35°27' E 139°42'3 3.3
2018-Jun-21 21:59N 35°29' E 139°42'0 0.0
2018-Jun-21 20:40N 35°29' E 139°42'0 0.0
2018-Jun-21 20:14N 35°29' E 139°42'0 0.0
2018-Jun-21 19:44N 35°29' E 139°42'0 0.0
2018-Jun-21 19:04N 35°29' E 139°42'0 0.0
2018-Jun-21 18:50N 35°29' E 139°42'0 0.0
2018-Jun-21 16:22N 35°29' E 139°42'0 0.0
2018-Jun-21 15:43N 35°29' E 139°42'0 0.0
2018-Jun-21 14:29N 35°29' E 139°42'0 0.0
2018-Jun-21 13:37N 35°29' E 139°42'0 0.0
2018-Jun-21 13:05N 35°29' E 139°42'0 0.0
2018-Jun-21 12:32N 35°29' E 139°42'0 0.0
2018-Jun-21 12:28N 35°29' E 139°42'0 0.0
2018-Jun-21 10:34N 35°29' E 139°42'6 0.7
2018-Jun-21 02:30N 35°29' E 139°49'7 9.5
2018-Jun-21 01:45N 35°24' E 139°42'2 2.9
2018-Jun-21 00:57N 35°25' E 139°39'1 0.9
2018-Jun-20 23:15N 35°23' E 139°40'3 6.6
2018-Jun-20 22:43N 35°26' E 139°42'2 9.7
2018-Jun-20 22:28N 35°29' E 139°42'0 0.1
2018-Jun-20 18:43N 35°29' E 139°42'0 0.0
2018-Jun-20 18:28N 35°29' E 139°42'0 0.0
2018-Jun-20 16:01N 35°29' E 139°42'0 0.0
2018-Jun-20 15:49N 35°29' E 139°42'0 0.0
2018-Jun-20 13:58N 35°29' E 139°42'0 0.0
2018-Jun-20 12:19N 35°29' E 139°42'0 0.0
2018-Jun-20 11:55N 35°29' E 139°42'0 0.0
2018-Jun-20 10:19N 35°29' E 139°42'0 0.0
2018-Jun-20 09:40N 35°29' E 139°42'0 0.0
2018-Jun-20 09:28N 35°29' E 139°42'0 0.0
2018-Jun-20 08:25N 35°29' E 139°42'0 0.0
2018-Jun-20 05:13N 35°29' E 139°42'0 0.0
2018-Jun-20 05:01N 35°29' E 139°42'0 0.0
2018-Jun-19 22:13N 35°29' E 139°42'0 0.0
2018-Jun-19 21:52N 35°29' E 139°42'0 0.0
2018-Jun-19 17:43N 35°29' E 139°42'0 0.0
2018-Jun-19 14:37N 35°29' E 139°42'0 0.0
2018-Jun-19 14:31N 35°29' E 139°42'0 0.0
2018-Jun-19 13:03N 35°29' E 139°42'0 0.0
2018-Jun-19 12:10N 35°29' E 139°42'0 0.0
2018-Jun-19 11:42N 35°29' E 139°42'0 0.0
2018-Jun-19 11:10N 35°29' E 139°42'0 0.0
2018-Jun-19 09:40N 35°29' E 139°42'0 0.0
2018-Jun-19 09:19N 35°29' E 139°42'0 0.0
2018-Jun-19 08:01N 35°29' E 139°42'0 0.0
2018-Jun-19 07:21N 35°29' E 139°42'0 0.0
2018-Jun-19 07:01N 35°29' E 139°42'0 0.0
2018-Jun-19 05:25N 35°29' E 139°42'3 5.7
2018-Jun-19 04:52N 35°28' E 139°45'2 0.8
2018-Jun-19 02:31N 35°29' E 139°47'1 9.0
2018-Jun-19 02:23N 35°28' E 139°46'5 8.7
2018-Jun-19 01:48N 35°24' E 139°42'2 2.0
2018-Jun-19 00:45N 35°25' E 139°39'0 0.0
2018-Jun-19 00:21N 35°25' E 139°39'0 0.0
2018-Jun-19 00:00N 35°25' E 139°39'0 0.3
2018-Jun-18 23:30N 35°24' E 139°39'2 3.4
2018-Jun-18 22:59N 35°24' E 139°41'5 9.6
2018-Jun-18 22:30N 35°28' E 139°42'1 0.0
2018-Jun-18 06:14N 35°29' E 139°42'0 0.0
2018-Jun-18 05:56N 35°29' E 139°42'0 0.0
2018-Jun-18 04:47N 35°29' E 139°42'0 0.1
2018-Jun-18 03:36N 35°29' E 139°42'1 3.5
2018-Jun-18 03:24N 35°29' E 139°42'3 6.2
2018-Jun-18 02:55N 35°26' E 139°42'3 6.3
2018-Jun-18 02:30N 35°24' E 139°40'0 0.5
2018-Jun-18 01:52N 35°24' E 139°40'1 1.3
2018-Jun-18 01:08N 35°23' E 139°40'0 0.3
2018-Jun-18 00:59N 35°23' E 139°40'0 0.1
2018-Jun-18 00:29N 35°23' E 139°40'0 0.1
2018-Jun-17 23:57N 35°23' E 139°40'1 1.3
2018-Jun-17 23:30N 35°24' E 139°40'4 7.3
2018-Jun-17 22:57N 35°27' E 139°42'1 0.1
2018-Jun-17 06:42N 35°28' E 139°42'3 8.7
2018-Jun-17 06:20N 35°28' E 139°46'4 0.9
2018-Jun-17 01:35N 35°25' E 139°43'1 9.0
2018-Jun-17 01:29N 35°24' E 139°42'2 1.9
2018-Jun-17 00:25N 35°24' E 139°40'0 0.0
2018-Jun-16 23:11N 35°24' E 139°40'0 1.1
2018-Jun-16 22:53N 35°24' E 139°40'2 4.8
2018-Jun-16 22:29N 35°24' E 139°42'5 3.6
2018-Jun-16 21:11N 35°29' E 139°42'0 0.0
2018-Jun-16 20:59N 35°29' E 139°42'0 0.0
2018-Jun-16 20:14N 35°29' E 139°42'0 0.0
2018-Jun-16 15:44N 35°29' E 139°42'0 0.0
2018-Jun-16 13:14N 35°29' E 139°42'0 0.0
2018-Jun-16 12:44N 35°29' E 139°42'0 0.0
2018-Jun-16 12:29N 35°29' E 139°42'0 0.0
2018-Jun-16 07:53N 35°29' E 139°42'0 0.0
2018-Jun-16 07:29N 35°29' E 139°42'0 0.0
2018-Jun-16 06:41N 35°29' E 139°42'0 0.0
2018-Jun-16 06:23N 35°29' E 139°42'0 0.0
2018-Jun-16 05:11N 35°29' E 139°42'0 0.0
2018-Jun-16 04:50N 35°29' E 139°42'0 0.0
2018-Jun-16 04:29N 35°29' E 139°42'0 0.0
2018-Jun-16 01:50N 35°29' E 139°42'0 0.0
2018-Jun-16 00:44N 35°29' E 139°42'0 0.0
2018-Jun-15 22:44N 35°29' E 139°42'0 0.0
2018-Jun-15 22:14N 35°29' E 139°42'0 0.0
2018-Jun-15 20:26N 35°29' E 139°42'0 0.0
2018-Jun-15 16:44N 35°29' E 139°42'0 0.0
2018-Jun-15 14:17N 35°29' E 139°42'0 0.0
2018-Jun-15 13:05N 35°29' E 139°42'0 0.0
2018-Jun-15 12:47N 35°29' E 139°42'0 0.0
2018-Jun-15 08:32N 35°29' E 139°42'0 0.0
2018-Jun-15 08:11N 35°29' E 139°42'0 0.0
2018-Jun-15 07:53N 35°29' E 139°42'0 0.0
2018-Jun-15 06:08N 35°29' E 139°42'0 0.0
2018-Jun-15 05:02N 35°29' E 139°42'0 0.0
2018-Jun-15 04:59N 35°29' E 139°42'2 2.5
2018-Jun-15 04:20N 35°28' E 139°43'3 1.3
2018-Jun-15 01:47N 35°29' E 139°46'3 8.6
2018-Jun-15 01:29N 35°27' E 139°44'4 8.7
2018-Jun-15 01:00N 35°24' E 139°41'2 0.9
2018-Jun-14 22:56N 35°25' E 139°39'0 0.7
2018-Jun-14 22:28N 35°24' E 139°40'2 3.9
2018-Jun-14 22:00N 35°24' E 139°42'5 7.7
2018-Jun-14 21:19N 35°29' E 139°42'0 0.0
2018-Jun-14 15:46N 35°29' E 139°42'0 0.0
2018-Jun-14 15:25N 35°29' E 139°42'0 0.0
2018-Jun-14 14:04N 35°29' E 139°42'0 0.0
2018-Jun-14 13:55N 35°29' E 139°42'0 0.0
2018-Jun-14 12:31N 35°29' E 139°42'0 0.1
2018-Jun-14 12:28N 35°29' E 139°42'0 0.0
2018-Jun-14 11:16N 35°29' E 139°42'0 0.0
2018-Jun-14 08:58N 35°29' E 139°42'0 0.3
2018-Jun-14 08:14N 35°29' E 139°42'3 1.0
2018-Jun-14 05:14N 35°28' E 139°45'4 9.3
2018-Jun-14 04:49N 35°25' E 139°42'3 6.7
2018-Jun-14 04:25N 35°24' E 139°39'1 2.1
2018-Jun-14 03:57N 35°24' E 139°38'0 0.0
2018-Jun-14 01:48N 35°24' E 139°38'1 2.3
2018-Jun-14 01:29N 35°24' E 139°39'1 1.7
2018-Jun-14 00:50N 35°24' E 139°40'0 0.9
2018-Jun-14 00:30N 35°23' E 139°40'6 2.0
2018-Jun-13 21:40N 35°29' E 139°42'0 0.0
2018-Jun-13 21:28N 35°29' E 139°42'0 0.0
2018-Jun-13 20:58N 35°29' E 139°42'0 0.0
2018-Jun-13 20:19N 35°29' E 139°42'  
Track history (hours):
 
Tides and Currents Weather Stations Pressure Air Temp Water Temp Dewpoint Dewpoint Depression Visibility Wind Speed Wind Dir Waves Ship Positions

No.21 Houeimaru

Last reported at 2018-Jun-23 08:41 UTC. Time now 2018-Jun-23 14:18 UTC.
Position N 35°29' E 139°42'.

Length 50 m.

Type: Tanker. MMSI: 431009275.

Date/timePositionNaut miles runAvg speedWind from/ knotsBaromVisibWave heightAir tempDewpointWater temp
2018-Jun-23 08:41N 35°29' E 139°42'0 0.0
2018-Jun-23 08:17N 35°29' E 139°42'0 0.2
2018-Jun-23 07:57N 35°29' E 139°42'6 1.0
2018-Jun-23 02:13N 35°29' E 139°48'2 7.8
2018-Jun-23 01:58N 35°28' E 139°46'4 8.3
2018-Jun-23 01:27N 35°25' E 139°43'3 1.1
2018-Jun-22 23:10N 35°24' E 139°40'1 3.3
2018-Jun-22 22:55N 35°24' E 139°40'0 0.5
2018-Jun-22 22:21N 35°23' E 139°40'0 0.0
2018-Jun-22 15:30N 35°23' E 139°40'0 0.0
2018-Jun-22 14:27N 35°23' E 139°40'0 0.0
2018-Jun-22 11:14N 35°23' E 139°40'2 6.7
2018-Jun-22 10:54N 35°24' E 139°42'4 0.4
2018-Jun-22 02:19N 35°27' E 139°45'3 8.3
2018-Jun-22 01:59N 35°25' E 139°43'2 0.8
2018-Jun-21 23:08N 35°23' E 139°41'3 9.7
2018-Jun-21 22:47N 35°27' E 139°42'3 3.3
2018-Jun-21 21:59N 35°29' E 139°42'0 0.0
2018-Jun-21 20:40N 35°29' E 139°42'0 0.0
2018-Jun-21 20:14N 35°29' E 139°42'0 0.0
2018-Jun-21 19:44N 35°29' E 139°42'0 0.0
2018-Jun-21 19:04N 35°29' E 139°42'0 0.0
2018-Jun-21 18:50N 35°29' E 139°42'0 0.0
2018-Jun-21 16:22N 35°29' E 139°42'0 0.0
2018-Jun-21 15:43N 35°29' E 139°42'0 0.0
2018-Jun-21 14:29N 35°29' E 139°42'0 0.0
2018-Jun-21 13:37N 35°29' E 139°42'0 0.0
2018-Jun-21 13:05N 35°29' E 139°42'0 0.0
2018-Jun-21 12:32N 35°29' E 139°42'0 0.0
2018-Jun-21 12:28N 35°29' E 139°42'0 0.0
2018-Jun-21 10:34N 35°29' E 139°42'6 0.7
2018-Jun-21 02:30N 35°29' E 139°49'7 9.5
2018-Jun-21 01:45N 35°24' E 139°42'2 2.9
2018-Jun-21 00:57N 35°25' E 139°39'1 0.9
2018-Jun-20 23:15N 35°23' E 139°40'3 6.6
2018-Jun-20 22:43N 35°26' E 139°42'2 9.7
2018-Jun-20 22:28N 35°29' E 139°42'0 0.1
2018-Jun-20 18:43N 35°29' E 139°42'0 0.0
2018-Jun-20 18:28N 35°29' E 139°42'0 0.0
2018-Jun-20 16:01N 35°29' E 139°42'0 0.0
2018-Jun-20 15:49N 35°29' E 139°42'0 0.0
2018-Jun-20 13:58N 35°29' E 139°42'0 0.0
2018-Jun-20 12:19N 35°29' E 139°42'0 0.0
2018-Jun-20 11:55N 35°29' E 139°42'0 0.0
2018-Jun-20 10:19N 35°29' E 139°42'0 0.0
2018-Jun-20 09:40N 35°29' E 139°42'0 0.0
2018-Jun-20 09:28N 35°29' E 139°42'0 0.0
2018-Jun-20 08:25N 35°29' E 139°42'0 0.0
2018-Jun-20 05:13N 35°29' E 139°42'0 0.0
2018-Jun-20 05:01N 35°29' E 139°42'0 0.0
2018-Jun-19 22:13N 35°29' E 139°42'0 0.0
2018-Jun-19 21:52N 35°29' E 139°42'0 0.0
2018-Jun-19 17:43N 35°29' E 139°42'0 0.0
2018-Jun-19 14:37N 35°29' E 139°42'0 0.0
2018-Jun-19 14:31N 35°29' E 139°42'0 0.0
2018-Jun-19 13:03N 35°29' E 139°42'0 0.0
2018-Jun-19 12:10N 35°29' E 139°42'0 0.0
2018-Jun-19 11:42N 35°29' E 139°42'0 0.0
2018-Jun-19 11:10N 35°29' E 139°42'0 0.0
2018-Jun-19 09:40N 35°29' E 139°42'0 0.0
2018-Jun-19 09:19N 35°29' E 139°42'0 0.0
2018-Jun-19 08:01N 35°29' E 139°42'0 0.0
2018-Jun-19 07:21N 35°29' E 139°42'0 0.0
2018-Jun-19 07:01N 35°29' E 139°42'0 0.0
2018-Jun-19 05:25N 35°29' E 139°42'3 5.7
2018-Jun-19 04:52N 35°28' E 139°45'2 0.8
2018-Jun-19 02:31N 35°29' E 139°47'1 9.0
2018-Jun-19 02:23N 35°28' E 139°46'5 8.7
2018-Jun-19 01:48N 35°24' E 139°42'2 2.0
2018-Jun-19 00:45N 35°25' E 139°39'0 0.0
2018-Jun-19 00:21N 35°25' E 139°39'0 0.0
2018-Jun-19 00:00N 35°25' E 139°39'0 0.3
2018-Jun-18 23:30N 35°24' E 139°39'2 3.4
2018-Jun-18 22:59N 35°24' E 139°41'5 9.6
2018-Jun-18 22:30N 35°28' E 139°42'1 0.0
2018-Jun-18 06:14N 35°29' E 139°42'0 0.0
2018-Jun-18 05:56N 35°29' E 139°42'0 0.0
2018-Jun-18 04:47N 35°29' E 139°42'0 0.1
2018-Jun-18 03:36N 35°29' E 139°42'1 3.5
2018-Jun-18 03:24N 35°29' E 139°42'3 6.2
2018-Jun-18 02:55N 35°26' E 139°42'3 6.3
2018-Jun-18 02:30N 35°24' E 139°40'0 0.5
2018-Jun-18 01:52N 35°24' E 139°40'1 1.3
2018-Jun-18 01:08N 35°23' E 139°40'0 0.3
2018-Jun-18 00:59N 35°23' E 139°40'0 0.1
2018-Jun-18 00:29N 35°23' E 139°40'0 0.1
2018-Jun-17 23:57N 35°23' E 139°40'1 1.3
2018-Jun-17 23:30N 35°24' E 139°40'4 7.3
2018-Jun-17 22:57N 35°27' E 139°42'1 0.1
2018-Jun-17 06:42N 35°28' E 139°42'3 8.7
2018-Jun-17 06:20N 35°28' E 139°46'4 0.9
2018-Jun-17 01:35N 35°25' E 139°43'1 9.0
2018-Jun-17 01:29N 35°24' E 139°42'2 1.9
2018-Jun-17 00:25N 35°24' E 139°40'0 0.0
2018-Jun-16 23:11N 35°24' E 139°40'0 1.1
2018-Jun-16 22:53N 35°24' E 139°40'2 4.8
2018-Jun-16 22:29N 35°24' E 139°42'5 3.6
2018-Jun-16 21:11N 35°29' E 139°42'0 0.0
2018-Jun-16 20:59N 35°29' E 139°42'0 0.0
2018-Jun-16 20:14N 35°29' E 139°42'0 0.0
2018-Jun-16 15:44N 35°29' E 139°42'0 0.0
2018-Jun-16 13:14N 35°29' E 139°42'0 0.0
2018-Jun-16 12:44N 35°29' E 139°42'0 0.0
2018-Jun-16 12:29N 35°29' E 139°42'0 0.0
2018-Jun-16 07:53N 35°29' E 139°42'0 0.0
2018-Jun-16 07:29N 35°29' E 139°42'0 0.0
2018-Jun-16 06:41N 35°29' E 139°42'0 0.0
2018-Jun-16 06:23N 35°29' E 139°42'0 0.0
2018-Jun-16 05:11N 35°29' E 139°42'0 0.0
2018-Jun-16 04:50N 35°29' E 139°42'0 0.0
2018-Jun-16 04:29N 35°29' E 139°42'0 0.0
2018-Jun-16 01:50N 35°29' E 139°42'0 0.0
2018-Jun-16 00:44N 35°29' E 139°42'0 0.0
2018-Jun-15 22:44N 35°29' E 139°42'0 0.0
2018-Jun-15 22:14N 35°29' E 139°42'0 0.0
2018-Jun-15 20:26N 35°29' E 139°42'0 0.0
2018-Jun-15 16:44N 35°29' E 139°42'0 0.0
2018-Jun-15 14:17N 35°29' E 139°42'0 0.0
2018-Jun-15 13:05N 35°29' E 139°42'0 0.0
2018-Jun-15 12:47N 35°29' E 139°42'0 0.0
2018-Jun-15 08:32N 35°29' E 139°42'0 0.0
2018-Jun-15 08:11N 35°29' E 139°42'0 0.0
2018-Jun-15 07:53N 35°29' E 139°42'0 0.0
2018-Jun-15 06:08N 35°29' E 139°42'0 0.0
2018-Jun-15 05:02N 35°29' E 139°42'0 0.0
2018-Jun-15 04:59N 35°29' E 139°42'2 2.5
2018-Jun-15 04:20N 35°28' E 139°43'3 1.3
2018-Jun-15 01:47N 35°29' E 139°46'3 8.6
2018-Jun-15 01:29N 35°27' E 139°44'4 8.7
2018-Jun-15 01:00N 35°24' E 139°41'2 0.9
2018-Jun-14 22:56N 35°25' E 139°39'0 0.7
2018-Jun-14 22:28N 35°24' E 139°40'2 3.9
2018-Jun-14 22:00N 35°24' E 139°42'5 7.7
2018-Jun-14 21:19N 35°29' E 139°42'0 0.0
2018-Jun-14 15:46N 35°29' E 139°42'0 0.0
2018-Jun-14 15:25N 35°29' E 139°42'0 0.0
2018-Jun-14 14:04N 35°29' E 139°42'0 0.0
2018-Jun-14 13:55N 35°29' E 139°42'0 0.0
2018-Jun-14 12:31N 35°29' E 139°42'0 0.1
2018-Jun-14 12:28N 35°29' E 139°42'0 0.0
2018-Jun-14 11:16N 35°29' E 139°42'0 0.0
2018-Jun-14 08:58N 35°29' E 139°42'0 0.3
2018-Jun-14 08:14N 35°29' E 139°42'3 1.0
2018-Jun-14 05:14N 35°28' E 139°45'4 9.3
2018-Jun-14 04:49N 35°25' E 139°42'3 6.7
2018-Jun-14 04:25N 35°24' E 139°39'1 2.1
2018-Jun-14 03:57N 35°24' E 139°38'0 0.0
2018-Jun-14 01:48N 35°24' E 139°38'1 2.3
2018-Jun-14 01:29N 35°24' E 139°39'1 1.7
2018-Jun-14 00:50N 35°24' E 139°40'0 0.9
2018-Jun-14 00:30N 35°23' E 139°40'6 2.0
2018-Jun-13 21:40N 35°29' E 139°42'0 0.0
2018-Jun-13 21:28N 35°29' E 139°42'0 0.0
2018-Jun-13 20:58N 35°29' E 139°42'0 0.0
2018-Jun-13 20:19N 35°29' E 139°42'  

Dump ship's entire track history